Time;durP1;ratioP1;P1;durP2;ratioP2;P2;SDS_P1;SDS_P2;PMS_P1;PMS_P2;Temp;Humidity;BMP_temperature;BMP_pressure;BME280_temperature;BME280_humidity;BME280_pressure;Samples;Min_cycle;Max_cycle;Signal;HPM_P1;HPM_P2
2022/08/23 00:00:01;;;;;;;;;;;;;;;;;;;;;
2022/08/23 00:03:25;;;;;;;5.10;3.35;;;14.90;1.00;;;;;;5112828;28;20061;-91
2022/08/23 00:06:45;;;;;;;;;;;;;;;;;;;;;
2022/08/23 00:10:07;;;;;;;;;;;;;;;;;;;;;
2022/08/23 00:13:51;;;;;;;;;;;;;;;;;;;;;
2022/08/23 00:16:58;;;;;;;5.75;3.60;;;14.90;1.00;;;;;;5084465;28;20465;-93
2022/08/23 00:20:19;;;;;;;7.38;3.85;;;14.80;1.00;;;;;;5069063;28;20092;-93
2022/08/23 00:23:12;;;;;;;4.53;3.15;;;14.70;1.00;;;;;;5080288;28;20063;-90
2022/08/23 00:26:19;;;;;;;7.20;3.08;;;14.70;1.00;;;;;;5081722;28;20047;-93
2022/08/23 00:29:39;;;;;;;6.88;2.95;;;14.80;1.00;;;;;;5078830;28;20058;-92
2022/08/23 00:36:17;;;;;;;4.05;2.72;;;15.20;1.00;;;;;;5075650;28;20040;-93
2022/08/23 00:51:26;;;;;;;;;;;;;;;;;;;;;
2022/08/23 00:58:29;;;;;;;;;;;;;;;;;;;;;
2022/08/23 01:01:42;;;;;;;;;;;;;;;;;;;;;
2022/08/23 01:05:13;;;;;;;;;;;;;;;;;;;;;
2022/08/23 01:08:55;;;;;;;7.45;3.13;;;15.80;1.00;;;;;;5095878;28;20121;-92
2022/08/23 01:12:15;;;;;;;4.15;2.65;;;15.70;1.00;;;;;;5033694;28;20060;-92
2022/08/23 01:15:54;;;;;;;3.85;2.55;;;15.60;1.00;;;;;;5076422;28;20072;-92
2022/08/23 01:19:32;;;;;;;4.57;2.90;;;15.40;1.00;;;;;;5086734;28;20071;-92
2022/08/23 01:22:58;;;;;;;7.07;3.15;;;15.10;1.00;;;;;;5026699;28;20052;-92
2022/08/23 01:26:13;;;;;;;4.38;2.95;;;14.80;1.00;;;;;;5018436;28;20049;-93
2022/08/23 01:30:21;;;;;;;;;;;;;;;;;;;;;
2022/08/23 01:34:03;;;;;;;;;;;;;;;;;;;;;
2022/08/23 01:37:40;;;;;;;;;;;;;;;;;;;;;
2022/08/23 01:41:22;;;;;;;7.28;3.15;;;14.10;5.70;;;;;;4973740;28;20053;-92
2022/08/23 01:44:30;;;;;;;7.20;3.00;;;14.00;28.90;;;;;;4994748;28;20050;-92
2022/08/23 01:47:26;;;;;;;6.43;3.60;;;13.90;38.20;;;;;;4971647;28;20051;-90
2022/08/23 01:50:55;;;;;;;5.05;3.75;;;13.80;55.80;;;;;;4982690;28;20042;-91
2022/08/23 01:54:08;;;;;;;6.70;3.45;;;13.70;85.00;;;;;;4957009;28;20221;-92
2022/08/23 01:57:22;;;;;;;;;;;;;;;;;;;;;
2022/08/23 02:11:55;;;;;;;7.22;4.00;;;14.30;78.20;;;;;;5003410;28;20061;-91
2022/08/23 02:19:02;;;;;;;7.05;3.53;;;14.40;40.70;;;;;;4983017;28;20070;-92
2022/08/23 02:22:34;;;;;;;4.88;3.20;;;14.20;54.40;;;;;;5036382;28;20384;-91
2022/08/23 02:25:24;;;;;;;4.85;3.45;;;14.00;52.10;;;;;;5036343;28;20498;-92
2022/08/23 02:28:36;;;;;;;6.10;4.22;;;13.90;69.00;;;;;;5052760;28;20493;-93
2022/08/23 02:31:30;;;;;;;4.97;3.72;;;13.90;92.30;;;;;;5055769;28;20045;-92
2022/08/23 02:34:19;;;;;;;;;;;14.00;97.10;;;;;;5045499;28;20059;-93
2022/08/23 02:37:19;;;;;;;9.55;4.43;;;13.80;95.30;;;;;;5093816;28;19920;-93
2022/08/23 02:40:57;;;;;;;;;;;;;;;;;;;;;
2022/08/23 02:44:33;;;;;;;5.05;4.20;;;13.50;99.90;;;;;;5055288;28;20159;-92
2022/08/23 02:47:50;;;;;;;;;;;;;;;;;;;;;
2022/08/23 02:51:00;;;;;;;4.93;4.40;;;13.40;99.90;;;;;;5034526;28;20174;-92
2022/08/23 02:54:16;;;;;;;9.63;4.85;;;13.40;99.90;;;;;;5044806;28;20049;-91
2022/08/23 02:57:26;;;;;;;;;;;;;;;;;;;;;
2022/08/23 03:03:39;;;;;;;;;;;;;;;;;;;;;
2022/08/23 03:06:35;;;;;;;8.82;5.47;;;12.80;99.90;;;;;;5266560;22;20480;-90
2022/08/23 03:10:15;;;;;;;6.10;4.65;;;12.70;99.90;;;;;;5100047;28;20078;-92
2022/08/23 03:13:27;;;;;;;8.02;5.30;;;12.70;99.90;;;;;;5049498;28;20041;-92
2022/08/23 03:17:01;;;;;;;8.50;5.10;;;12.60;1.00;;;;;;5054150;28;20466;-93
2022/08/23 03:24:09;;;;;;;8.63;4.63;;;12.50;49.00;;;;;;5035173;28;20060;-93
2022/08/23 03:27:20;;;;;;;;;;;;;;;;;;;;;
2022/08/23 03:30:41;;;;;;;8.50;5.05;;;12.40;99.90;;;;;;5033311;28;20187;-93
2022/08/23 03:34:13;;;;;;;5.47;4.53;;;12.50;99.90;;;;;;5023585;28;20419;-92
2022/08/23 03:37:13;;;;;;;;;;;;;;;;;;;;;
2022/08/23 03:40:34;;;;;;;;;;;;;;;;;;;;;
2022/08/23 03:43:39;;;;;;;5.65;4.82;;;12.70;99.90;;;;;;5029234;28;20465;-91
2022/08/23 03:46:46;;;;;;;;;;;12.80;99.90;;;;;;5079971;28;20127;-91
2022/08/23 03:51:13;;;;;;;;;;;;;;;;;;;;;
2022/08/23 03:54:18;;;;;;;8.02;5.20;;;12.90;99.90;;;;;;4996486;28;20127;-91
2022/08/23 03:57:37;;;;;;;9.57;5.07;;;13.00;98.50;;;;;;5008505;28;20056;-92
2022/08/23 04:01:22;;;;;;;5.80;4.78;;;12.80;99.90;;;;;;5000443;28;20112;-91
2022/08/23 04:04:45;;;;;;;;;;;;;;;;;;;;;
2022/08/23 04:07:55;;;;;;;;;;;12.50;99.90;;;;;;5006572;28;20296;-89
2022/08/23 04:11:27;;;;;;;8.05;5.15;;;12.40;99.90;;;;;;4951094;28;19990;-92
2022/08/23 04:14:45;;;;;;;9.40;5.35;;;12.30;1.00;;;;;;4952681;28;20099;-91
2022/08/23 04:17:49;;;;;;;7.50;5.53;;;12.20;99.90;;;;;;5035850;28;20069;-92
2022/08/23 04:21:31;;;;;;;9.88;6.30;;;12.20;99.90;;;;;;5046933;28;20033;-87
2022/08/23 04:24:45;;;;;;;7.05;5.20;;;12.20;99.90;;;;;;5295503;22;20043;-81
2022/08/23 04:27:56;;;;;;;8.40;5.35;;;12.30;99.90;;;;;;5294903;22;20100;-91
2022/08/23 04:31:15;;;;;;;9.50;5.60;;;12.20;99.90;;;;;;5012506;28;20038;-91
2022/08/23 04:34:19;;;;;;;16.25;5.80;;;12.10;99.90;;;;;;5027354;28;20066;-91
2022/08/23 04:37:11;;;;;;;9.77;5.40;;;12.20;1.00;;;;;;5014712;28;20445;-91
2022/08/23 04:43:18;;;;;;;6.90;5.32;;;12.60;99.90;;;;;;5028618;28;20073;-91
2022/08/23 04:46:14;;;;;;;7.25;5.30;;;12.70;99.90;;;;;;5004088;28;20056;-90
2022/08/23 04:49:04;;;;;;;7.30;5.40;;;12.60;99.90;;;;;;5073222;28;20062;-90
2022/08/23 04:52:01;;;;;;;5.75;5.05;;;12.50;99.90;;;;;;5109741;28;20511;-89
2022/08/23 04:54:48;;;;;;;6.07;5.40;;;12.50;1.00;;;;;;5086857;28;20079;-90
2022/08/23 04:57:37;;;;;;;9.98;5.38;;;12.50;1.00;;;;;;5099155;28;20043;-91
2022/08/23 05:00:44;;;;;;;8.82;5.53;;;12.50;1.00;;;;;;5115809;28;20055;-78
2022/08/23 05:03:41;;;;;;;10.37;5.33;;;12.70;1.00;;;;;;5109773;28;20047;-79
2022/08/23 05:06:31;;;;;;;8.82;5.00;;;13.00;99.90;;;;;;5093838;28;20097;-81
2022/08/23 05:09:20;;;;;;;12.40;8.50;;;13.10;99.90;;;;;;5103610;28;20039;-79
2022/08/23 05:12:08;;;;;;;11.10;6.38;;;13.20;99.90;;;;;;5096651;28;20450;-78
2022/08/23 05:15:01;;;;;;;7.05;4.70;;;13.40;11.80;;;;;;5109401;28;20048;-79
2022/08/23 05:17:51;;;;;;;8.60;4.43;;;13.60;1.00;;;;;;5101437;28;20055;-78
2022/08/23 05:20:38;;;;;;;8.88;4.85;;;13.70;1.00;;;;;;5099960;28;20121;-78
2022/08/23 05:23:28;;;;;;;10.95;5.00;;;13.70;1.00;;;;;;5109507;28;20032;-78
2022/08/23 05:26:21;;;;;;;5.15;4.35;;;13.80;99.90;;;;;;5088786;28;20042;-81
2022/08/23 05:29:08;;;;;;;11.85;5.50;;;13.90;99.90;;;;;;5114018;28;20040;-79
2022/08/23 05:32:05;;;;;;;7.53;5.32;;;14.00;99.90;;;;;;5108701;28;20047;-81
2022/08/23 05:34:52;;;;;;;;;;;14.20;99.90;;;;;;5112165;28;20043;-81
2022/08/23 05:37:47;;;;;;;7.82;5.72;;;14.40;99.90;;;;;;5114966;28;19928;-80
2022/08/23 05:40:36;;;;;;;7.97;5.22;;;14.60;99.90;;;;;;5110676;28;20360;-80
2022/08/23 05:43:25;;;;;;;10.15;5.60;;;14.80;99.90;;;;;;5101340;28;20644;-79
2022/08/23 05:46:16;;;;;;;7.40;4.50;;;15.00;99.90;;;;;;5092432;28;20091;-79
2022/08/23 05:49:21;;;;;;;10.52;5.13;;;15.10;99.90;;;;;;5111225;28;20447;-80
2022/08/23 05:52:15;;;;;;;8.50;5.15;;;15.20;99.90;;;;;;5108682;28;20040;-81
2022/08/23 05:55:04;;;;;;;8.40;4.63;;;15.30;99.90;;;;;;5108219;28;20047;-80
2022/08/23 05:57:52;;;;;;;7.97;5.10;;;15.50;99.90;;;;;;5087603;28;20453;-80
2022/08/23 06:00:54;;;;;;;7.82;5.43;;;15.70;99.90;;;;;;5093466;28;20055;-82
2022/08/23 06:03:41;;;;;;;9.93;5.80;;;15.80;99.90;;;;;;5111989;28;20089;-81
2022/08/23 06:06:30;;;;;;;9.93;5.78;;;16.00;99.90;;;;;;5113639;28;20054;-79
2022/08/23 06:09:25;;;;;;;8.88;5.38;;;16.30;99.90;;;;;;5104178;28;20064;-81
2022/08/23 06:12:12;;;;;;;6.72;4.82;;;16.50;99.90;;;;;;5084519;28;20048;-81
2022/08/23 06:15:03;;;;;;;11.85;5.00;;;16.60;99.90;;;;;;5111260;28;20055;-79
2022/08/23 06:17:51;;;;;;;10.38;5.45;;;16.80;99.90;;;;;;5110298;28;20451;-79
2022/08/23 06:20:38;;;;;;;8.27;5.35;;;17.00;99.90;;;;;;5104368;28;20151;-81
2022/08/23 06:23:25;;;;;;;6.53;4.82;;;17.10;99.90;;;;;;5112733;28;20063;-80
2022/08/23 06:26:25;;;;;;;7.38;5.20;;;17.30;99.90;;;;;;5113017;28;20051;-81
2022/08/23 06:29:15;;;;;;;7.90;4.45;;;17.50;99.90;;;;;;5113810;28;20046;-80
2022/08/23 06:32:04;;;;;;;5.57;4.18;;;17.60;99.90;;;;;;5110857;28;20043;-80
2022/08/23 06:34:51;;;;;;;7.00;4.90;;;17.70;99.90;;;;;;5110807;28;21648;-79
2022/08/23 06:38:01;;;;;;;6.47;4.50;;;17.90;93.40;;;;;;5098139;27;20138;-80
2022/08/23 06:40:48;;;;;;;7.70;4.65;;;18.10;78.50;;;;;;5105405;28;20055;-81
2022/08/23 06:43:37;;;;;;;8.02;4.13;;;18.20;53.80;;;;;;5114422;28;20067;-80
2022/08/23 06:46:27;;;;;;;8.57;4.40;;;18.40;39.70;;;;;;5106238;28;20044;-80
2022/08/23 06:49:18;;;;;;;7.55;4.07;;;18.50;25.90;;;;;;5111513;28;20055;-80
2022/08/23 06:52:11;;;;;;;11.10;4.13;;;18.60;22.40;;;;;;5112111;28;20047;-80
2022/08/23 06:55:01;;;;;;;4.72;3.67;;;18.80;8.90;;;;;;5112540;28;20055;-80
2022/08/23 06:57:48;;;;;;;4.45;3.33;;;19.20;1.00;;;;;;5108308;28;20468;-79
2022/08/23 07:00:36;;;;;;;6.25;3.30;;;19.40;1.00;;;;;;5101348;28;20044;-79
2022/08/23 07:03:23;;;;;;;6.43;4.07;;;19.60;1.00;;;;;;5096006;28;20453;-80
2022/08/23 07:06:14;;;;;;;5.85;3.58;;;19.90;1.00;;;;;;5108920;28;20055;-80
2022/08/23 07:09:10;;;;;;;5.30;3.28;;;20.30;1.00;;;;;;5111773;28;20039;-79
2022/08/23 07:11:58;;;;;;;6.72;3.40;;;20.60;1.00;;;;;;5110226;28;20044;-79
2022/08/23 07:14:49;;;;;;;5.88;3.30;;;21.00;1.00;;;;;;5097593;28;20048;-80
2022/08/23 07:17:36;;;;;;;5.75;3.00;;;21.20;1.00;;;;;;5106753;28;20052;-80
2022/08/23 07:20:28;;;;;;;5.00;3.10;;;21.60;1.00;;;;;;5110314;28;20051;-79
2022/08/23 07:23:16;;;;;;;5.60;3.10;;;21.50;1.00;;;;;;5112645;28;20355;-79
2022/08/23 07:26:08;;;;;;;3.20;2.38;;;21.50;1.00;;;;;;5099717;28;20358;-81
2022/08/23 07:28:58;;;;;;;5.18;2.83;;;21.50;1.00;;;;;;5109524;28;20355;-81
2022/08/23 07:31:48;;;;;;;6.18;2.70;;;21.60;1.00;;;;;;5080269;28;20063;-79
2022/08/23 07:34:36;;;;;;;4.05;2.20;;;21.60;1.00;;;;;;5107076;28;20061;-80
2022/08/23 07:37:23;;;;;;;2.72;2.40;;;21.70;1.00;;;;;;5105729;28;20040;-81
2022/08/23 07:40:12;;;;;;;5.32;2.50;;;21.90;1.00;;;;;;5106473;28;20067;-79
2022/08/23 07:43:10;;;;;;;5.95;2.60;;;22.30;1.00;;;;;;5107235;28;20363;-79
2022/08/23 07:45:58;;;;;;;6.30;2.42;;;22.50;1.00;;;;;;5093423;28;20601;-80
2022/08/23 07:48:46;;;;;;;6.88;1.98;;;23.00;1.00;;;;;;5101564;28;20113;-80
2022/08/23 07:51:47;;;;;;;3.08;2.40;;;23.40;1.00;;;;;;5091371;28;20099;-80
2022/08/23 07:54:34;;;;;;;5.47;2.60;;;23.80;1.00;;;;;;5111061;28;20036;-78
2022/08/23 07:57:22;;;;;;;3.47;2.20;;;24.20;1.00;;;;;;5105008;28;20059;-80
2022/08/23 08:00:12;;;;;;;5.22;2.60;;;24.60;1.00;;;;;;5100321;28;20098;-80
2022/08/23 08:03:02;;;;;;;4.95;2.35;;;24.60;1.00;;;;;;5105991;28;20043;-80
2022/08/23 08:05:49;;;;;;;4.55;2.35;;;25.00;1.00;;;;;;5093191;28;20067;-81
2022/08/23 08:08:39;;;;;;;6.10;2.25;;;25.50;1.00;;;;;;5111691;28;20040;-80
2022/08/23 08:11:29;;;;;;;6.63;2.10;;;25.60;1.00;;;;;;5110867;28;20054;-80
2022/08/23 08:14:21;;;;;;;4.75;2.38;;;25.90;1.00;;;;;;5099536;28;20114;-79
2022/08/23 08:17:11;;;;;;;4.50;2.30;;;26.80;1.00;;;;;;5095821;28;20055;-81
2022/08/23 08:19:58;;;;;;;6.00;2.15;;;27.10;1.00;;;;;;5101432;28;20044;-80
2022/08/23 08:22:46;;;;;;;7.13;2.53;;;27.20;1.00;;;;;;5108088;28;20484;-81
2022/08/23 08:25:44;;;;;;;3.90;2.20;;;27.40;1.00;;;;;;5113296;28;20042;-81
2022/08/23 08:28:33;;;;;;;4.85;2.08;;;28.00;1.00;;;;;;5132587;28;20032;-79
2022/08/23 08:31:22;;;;;;;11.90;2.58;;;28.00;1.00;;;;;;5109597;28;20046;-80
2022/08/23 08:34:09;;;;;;;7.03;2.60;;;27.80;1.00;;;;;;5111713;28;20044;-80
2022/08/23 08:36:59;;;;;;;4.00;1.80;;;28.80;1.00;;;;;;5115888;28;20499;-80
2022/08/23 08:39:52;;;;;;;5.13;1.88;;;29.40;1.00;;;;;;5116476;28;20044;-79
2022/08/23 08:43:04;;;;;;;3.92;1.92;;;29.70;99.90;;;;;;5109026;28;20055;-80
2022/08/23 08:45:57;;;;;;;4.53;2.17;;;30.20;1.00;;;;;;5110694;28;20047;-81
2022/08/23 08:48:52;;;;;;;3.40;2.10;;;30.50;99.90;;;;;;5116575;28;20048;-80
2022/08/23 08:51:50;;;;;;;4.03;1.95;;;31.60;99.90;;;;;;5112507;28;20047;-81
2022/08/23 08:54:39;;;;;;;2.85;1.70;;;31.80;99.90;;;;;;5104026;28;20055;-79
2022/08/23 08:57:41;;;;;;;2.42;1.63;;;32.60;99.90;;;;;;5110929;28;20142;-79
2022/08/23 09:00:33;;;;;;;6.97;1.58;;;32.30;99.90;;;;;;5094326;28;20100;-79
2022/08/23 09:03:21;;;;;;;4.18;1.65;;;32.20;99.90;;;;;;5109795;28;20039;-80
2022/08/23 09:06:40;;;;;;;7.00;1.38;;;32.90;99.90;;;;;;5114606;28;20416;-81
2022/08/23 09:10:02;;;;;;;3.63;1.65;;;32.10;99.90;;;;;;5091295;28;20036;-80
2022/08/23 09:13:22;;;;;;;3.67;1.20;;;30.40;99.90;;;;;;5103571;28;20051;-82
2022/08/23 09:16:12;;;;;;;3.42;1.63;;;31.30;99.90;;;;;;5065939;28;20152;-80
2022/08/23 09:19:01;;;;;;;7.22;1.30;;;32.10;99.90;;;;;;5105260;28;20052;-81
2022/08/23 09:21:56;;;;;;;3.75;1.33;;;32.60;99.90;;;;;;5114996;28;20035;-81
2022/08/23 09:24:43;;;;;;;2.53;1.08;;;33.20;99.90;;;;;;5115770;28;20244;-79
2022/08/23 09:27:30;;;;;;;2.83;1.23;;;33.90;99.90;;;;;;5092540;28;20125;-83
2022/08/23 09:30:23;;;;;;;2.85;1.10;;;34.40;99.90;;;;;;5109495;28;20040;-81
2022/08/23 09:33:19;;;;;;;;;;;33.80;99.90;;;;;;5106806;28;20058;-81
2022/08/23 09:36:30;;;;;;;2.65;1.33;;;33.90;99.90;;;;;;5109984;28;19924;-80
2022/08/23 09:39:27;;;;;;;4.13;1.30;;;32.40;99.90;;;;;;5110433;28;20056;-81
2022/08/23 09:42:38;;;;;;;2.55;1.17;;;32.10;99.90;;;;;;5100600;28;20043;-80
2022/08/23 09:45:32;;;;;;;1.65;1.08;;;31.90;99.90;;;;;;5108366;28;20176;-81
2022/08/23 09:48:32;;;;;;;2.15;1.10;;;32.60;99.90;;;;;;5111078;28;20036;-80
2022/08/23 09:51:36;;;;;;;4.38;1.25;;;33.50;99.90;;;;;;5107278;28;20044;-80
2022/08/23 09:54:33;;;;;;;3.25;1.40;;;32.60;99.90;;;;;;5113528;28;20108;-79
2022/08/23 09:57:34;;;;;;;4.32;1.38;;;31.80;99.90;;;;;;5104827;28;20055;-79
2022/08/23 10:00:29;;;;;;;4.88;1.20;;;31.60;99.90;;;;;;5113941;28;20101;-79
2022/08/23 10:03:26;;;;;;;4.43;1.27;;;32.20;99.90;;;;;;5108985;28;20048;-79
2022/08/23 10:06:32;;;;;;;5.72;1.13;;;32.50;99.90;;;;;;5098882;28;20043;-78
2022/08/23 10:09:27;;;;;;;3.25;1.35;;;32.50;99.90;;;;;;5096413;28;20085;-79
2022/08/23 10:12:14;;;;;;;3.30;1.30;;;31.60;99.90;;;;;;5110815;28;20070;-79
2022/08/23 10:15:02;;;;;;;3.08;1.02;;;32.20;99.90;;;;;;5106859;28;20474;-79
2022/08/23 10:18:14;;;;;;;1.75;1.00;;;33.60;99.90;;;;;;5098730;28;20047;-80
2022/08/23 10:21:01;;;;;;;;;;;34.80;99.90;;;;;;5088793;28;20055;-80
2022/08/23 10:24:07;;;;;;;2.10;1.08;;;35.70;99.90;;;;;;5112751;28;20360;-80
2022/08/23 10:26:57;;;;;;;4.05;1.30;;;35.00;99.90;;;;;;5106122;28;20040;-81
2022/08/23 10:29:47;;;;;;;6.07;1.75;;;33.80;99.90;;;;;;5112952;28;20130;-80
2022/08/23 13:35:38;;;;;;;3.78;1.40;;;36.10;99.90;;;;;;5160092;22;20048;-81
2022/08/23 13:38:30;;;;;;;1.13;0.93;;;35.10;99.90;;;;;;5044858;28;20067;-80
2022/08/23 13:41:34;;;;;;;2.40;1.55;;;35.00;99.90;;;;;;5073430;28;20131;-78
2022/08/23 13:44:30;;;;;;;3.13;1.10;;;36.40;99.90;;;;;;5072258;28;20036;-78
2022/08/23 13:47:27;;;;;;;3.72;1.45;;;37.20;99.90;;;;;;5077305;28;20427;-79
2022/08/23 13:50:33;;;;;;;3.67;1.38;;;36.80;99.90;;;;;;5070117;28;20481;-78
2022/08/23 13:53:21;;;;;;;1.83;1.23;;;36.00;99.90;;;;;;5075105;28;20355;-80
2022/08/23 13:56:08;;;;;;;6.03;1.70;;;35.60;99.90;;;;;;5073366;28;20048;-78
2022/08/23 13:59:19;;;;;;;4.57;1.35;;;35.40;99.90;;;;;;5071423;28;20158;-79
2022/08/23 14:02:13;;;;;;;3.22;1.15;;;35.70;99.90;;;;;;5069253;28;20052;-79
2022/08/23 14:05:01;;;;;;;5.35;1.20;;;36.60;99.90;;;;;;5073352;28;20052;-78
2022/08/23 14:07:51;;;;;;;3.10;1.20;;;37.30;99.90;;;;;;5056551;28;20072;-79
2022/08/23 14:10:39;;;;;;;2.28;1.23;;;37.90;99.90;;;;;;5073084;28;20165;-80
2022/08/23 14:13:28;;;;;;;1.65;1.23;;;36.40;99.90;;;;;;5064500;28;20070;-81
2022/08/23 14:16:33;;;;;;;3.90;1.13;;;36.00;99.90;;;;;;5071986;28;20421;-80
2022/08/23 14:19:25;;;;;;;1.95;1.00;;;35.80;99.90;;;;;;5072836;28;20067;-79
2022/08/23 14:22:32;;;;;;;3.10;1.20;;;35.50;99.90;;;;;;5071688;28;20094;-80
2022/08/23 14:25:20;;;;;;;2.53;1.33;;;35.70;99.90;;;;;;5062560;28;20459;-81
2022/08/23 14:28:07;;;;;;;5.60;1.67;;;35.10;99.90;;;;;;5059884;28;20048;-81
2022/08/23 14:30:55;;;;;;;3.42;1.38;;;34.10;99.90;;;;;;5067627;28;20041;-79
2022/08/23 14:33:44;;;;;;;3.25;1.35;;;33.70;99.90;;;;;;5073806;28;20048;-81
2022/08/23 14:36:34;;;;;;;4.03;1.30;;;35.00;99.90;;;;;;5071198;28;20114;-80
2022/08/23 14:39:21;;;;;;;2.92;1.25;;;36.00;99.90;;;;;;5052786;28;20435;-80
2022/08/23 14:42:11;;;;;;;4.72;1.48;;;37.30;99.90;;;;;;5058533;28;20130;-79
2022/08/23 14:44:58;;;;;;;3.38;1.30;;;38.00;99.90;;;;;;5072474;28;20048;-79
2022/08/23 14:47:45;;;;;;;4.43;1.27;;;37.80;99.90;;;;;;5073084;28;20467;-81
2022/08/23 14:50:32;;;;;;;1.83;1.20;;;37.70;99.90;;;;;;5068563;28;20072;-79
2022/08/23 14:53:24;;;;;;;1.88;1.30;;;37.80;99.90;;;;;;5073349;28;20052;-79
2022/08/23 14:56:11;;;;;;;3.20;1.60;;;37.10;99.90;;;;;;5058997;28;20145;-80
2022/08/23 14:59:07;;;;;;;2.08;1.25;;;37.30;99.90;;;;;;5065740;28;20135;-80
2022/08/23 15:01:56;;;;;;;3.03;1.40;;;36.90;99.90;;;;;;5070421;28;20638;-79
2022/08/23 15:04:43;;;;;;;2.65;1.23;;;36.20;99.90;;;;;;5072669;28;20048;-80
2022/08/23 15:07:30;;;;;;;3.80;1.15;;;35.60;99.90;;;;;;5065107;28;20051;-79
2022/08/23 15:10:17;;;;;;;3.92;1.40;;;35.70;99.90;;;;;;5070058;28;20047;-82
2022/08/23 15:13:24;;;;;;;2.78;1.30;;;35.00;99.90;;;;;;5071194;28;20347;-79
2022/08/23 15:16:24;;;;;;;3.10;1.42;;;34.30;99.90;;;;;;5070911;28;20379;-81
2022/08/23 15:19:12;;;;;;;2.55;1.48;;;34.40;99.90;;;;;;5071981;28;20044;-80
2022/08/23 15:22:00;;;;;;;1.98;1.00;;;34.60;99.90;;;;;;5052639;28;20059;-83
2022/08/23 15:25:07;;;;;;;3.05;1.45;;;35.20;99.90;;;;;;5067412;28;20431;-80
2022/08/23 15:27:55;;;;;;;2.83;1.25;;;35.10;99.90;;;;;;5073249;28;20407;-80
2022/08/23 15:30:43;;;;;;;3.70;1.55;;;35.30;99.90;;;;;;5074657;28;20051;-80
2022/08/23 15:33:33;;;;;;;2.67;1.10;;;35.80;99.90;;;;;;5070696;28;20045;-80
2022/08/23 15:36:20;;;;;;;3.95;1.58;;;35.40;99.90;;;;;;5063665;28;20048;-79
2022/08/23 15:39:09;;;;;;;2.10;1.35;;;35.30;99.90;;;;;;5055127;28;20074;-80
2022/08/23 15:41:56;;;;;;;3.75;1.42;;;35.30;99.90;;;;;;5071142;28;20052;-80
2022/08/23 15:44:43;;;;;;;2.17;1.25;;;35.10;99.90;;;;;;5076665;28;20487;-80
2022/08/23 15:47:42;;;;;;;4.40;1.42;;;35.30;99.90;;;;;;5063966;28;20041;-80
2022/08/23 15:50:32;;;;;;;5.30;1.35;;;34.80;99.90;;;;;;5077290;28;20169;-80
2022/08/23 15:53:23;;;;;;;3.30;1.60;;;35.20;99.90;;;;;;5073779;28;20116;-80
2022/08/23 15:56:15;;;;;;;6.15;1.63;;;34.70;99.90;;;;;;5072219;28;20072;-80
2022/08/23 15:59:03;;;;;;;6.68;1.50;;;34.10;99.90;;;;;;5063676;28;20053;-80
2022/08/23 16:01:53;;;;;;;3.83;1.65;;;34.20;99.90;;;;;;5071020;28;20114;-80
2022/08/23 16:04:44;;;;;;;2.17;1.58;;;33.90;99.90;;;;;;5057441;28;20059;-81
2022/08/23 16:07:33;;;;;;;2.60;1.60;;;33.50;99.90;;;;;;5061068;28;20537;-80
2022/08/23 16:10:20;;;;;;;2.90;1.58;;;33.10;99.90;;;;;;5058426;28;20047;-80
2022/08/23 16:13:10;;;;;;;3.17;1.42;;;33.30;99.90;;;;;;5073318;28;20098;-80
2022/08/23 16:15:59;;;;;;;3.42;1.70;;;33.60;99.90;;;;;;5060803;28;20059;-84
2022/08/23 16:18:48;;;;;;;3.95;1.40;;;33.30;99.90;;;;;;5069069;28;20060;-81
2022/08/23 16:21:38;;;;;;;4.00;1.35;;;33.40;99.90;;;;;;5073525;28;20040;-81
2022/08/23 16:24:28;;;;;;;4.75;1.50;;;33.30;99.90;;;;;;5056882;28;20099;-80
2022/08/23 16:27:18;;;;;;;2.13;1.48;;;32.50;99.90;;;;;;5071583;28;20052;-80
2022/08/23 16:30:06;;;;;;;3.67;1.50;;;32.80;99.90;;;;;;5072555;28;20467;-80
2022/08/23 16:32:58;;;;;;;5.57;1.40;;;32.30;99.90;;;;;;5062467;28;20040;-80
2022/08/23 16:35:46;;;;;;;2.90;1.67;;;32.10;99.90;;;;;;5072337;28;20064;-81
2022/08/23 16:38:36;;;;;;;3.05;1.63;;;31.60;99.90;;;;;;5058476;28;20053;-80
2022/08/23 16:41:25;;;;;;;5.30;1.85;;;31.00;99.90;;;;;;5069118;28;20057;-80
2022/08/23 16:44:12;;;;;;;4.75;1.63;;;30.40;99.90;;;;;;5088038;28;20041;-78
2022/08/23 16:47:06;;;;;;;3.53;1.42;;;29.80;99.90;;;;;;5072834;28;20447;-79
2022/08/23 16:49:54;;;;;;;4.90;1.70;;;29.20;99.90;;;;;;5068884;28;20047;-79
2022/08/23 16:52:42;;;;;;;7.05;1.67;;;28.80;99.90;;;;;;5069352;28;20041;-80
2022/08/23 16:55:31;;;;;;;2.60;1.65;;;28.30;99.90;;;;;;5069951;28;20053;-79
2022/08/23 16:58:22;;;;;;;3.92;1.50;;;27.90;99.90;;;;;;5068716;28;20086;-81
2022/08/23 17:01:13;;;;;;;2.75;1.30;;;27.60;99.90;;;;;;5071702;28;20101;-80
2022/08/23 17:04:01;;;;;;;2.85;1.20;;;27.50;99.90;;;;;;5062432;28;20059;-80
2022/08/23 17:06:52;;;;;;;4.18;1.52;;;27.20;99.90;;;;;;5056806;28;20055;-79
2022/08/23 17:09:40;;;;;;;7.05;1.52;;;27.10;99.90;;;;;;5070044;28;20064;-81
2022/08/23 17:12:28;;;;;;;3.85;1.77;;;26.90;99.90;;;;;;5074365;28;20387;-80
2022/08/23 17:15:21;;;;;;;2.55;1.63;;;26.70;99.90;;;;;;5069541;28;20048;-79
2022/08/23 17:18:08;;;;;;;3.03;1.83;;;26.70;99.90;;;;;;5068412;28;20053;-78
2022/08/23 17:20:58;;;;;;;5.28;1.67;;;26.50;99.90;;;;;;5069407;28;20048;-79
2022/08/23 17:23:45;;;;;;;4.63;1.45;;;26.40;99.90;;;;;;5074769;28;20060;-79
2022/08/23 17:26:32;;;;;;;2.88;1.73;;;26.30;99.90;;;;;;5072466;28;20071;-78
2022/08/23 17:29:20;;;;;;;2.53;1.40;;;26.10;99.90;;;;;;5072609;28;20040;-79
2022/08/23 17:32:08;;;;;;;7.80;2.05;;;26.00;99.90;;;;;;5077093;28;20130;-79
2022/08/23 17:34:55;;;;;;;7.22;1.80;;;25.90;99.90;;;;;;5072493;28;20066;-80
2022/08/23 17:37:42;;;;;;;5.97;1.70;;;25.80;99.90;;;;;;5075520;28;20127;-80
2022/08/23 17:40:36;;;;;;;7.93;2.22;;;25.60;99.90;;;;;;5066597;28;20107;-80
2022/08/23 17:43:24;;;;;;;4.97;2.08;;;25.50;99.90;;;;;;5042279;28;20060;-78
2022/08/23 17:46:13;;;;;;;6.82;2.10;;;25.40;99.90;;;;;;5041896;28;20106;-80
2022/08/23 17:49:01;;;;;;;4.75;1.52;;;25.20;99.90;;;;;;5048810;28;20123;-79
2022/08/23 17:51:48;;;;;;;4.05;1.70;;;25.10;99.90;;;;;;5074965;28;20071;-80
2022/08/23 17:54:35;;;;;;;2.47;1.70;;;25.00;99.90;;;;;;5062913;28;20074;-80
2022/08/23 17:57:24;;;;;;;13.63;2.22;;;24.80;99.90;;;;;;5069788;28;20033;-81
2022/08/23 18:00:13;;;;;;;3.90;1.80;;;24.70;99.90;;;;;;5072550;28;20059;-80
2022/08/23 18:03:01;;;;;;;2.65;1.50;;;24.60;99.90;;;;;;5048638;28;20049;-80
2022/08/23 18:05:48;;;;;;;4.22;1.70;;;24.40;99.90;;;;;;5076290;28;20045;-79
2022/08/23 18:08:35;;;;;;;4.90;2.15;;;24.20;99.90;;;;;;5050891;28;20450;-79
2022/08/23 18:11:24;;;;;;;4.80;1.90;;;24.10;99.90;;;;;;5040143;28;20128;-80
2022/08/23 18:14:11;;;;;;;5.13;1.42;;;23.90;99.90;;;;;;5037511;28;20064;-81
2022/08/23 18:16:59;;;;;;;3.47;1.55;;;23.70;99.90;;;;;;5034336;28;20076;-80
2022/08/23 18:19:46;;;;;;;4.07;1.70;;;23.60;99.90;;;;;;5037132;28;20052;-80
2022/08/23 18:22:34;;;;;;;3.30;2.00;;;23.40;99.90;;;;;;5041306;28;20049;-80
2022/08/23 18:25:23;;;;;;;4.05;2.17;;;23.20;99.90;;;;;;5039816;28;20040;-81
2022/08/23 18:28:16;;;;;;;5.45;2.17;;;23.20;99.90;;;;;;5038358;28;20368;-80
2022/08/23 18:31:06;;;;;;;5.60;1.73;;;23.00;99.90;;;;;;5039854;28;20116;-80
2022/08/23 18:33:54;;;;;;;3.45;1.50;;;22.90;99.90;;;;;;5053122;28;20460;-80
2022/08/23 18:36:47;;;;;;;4.38;2.13;;;22.70;99.90;;;;;;5052768;28;20097;-80
2022/08/23 18:39:34;;;;;;;7.07;1.70;;;22.60;99.90;;;;;;5053977;28;20052;-80
2022/08/23 18:42:22;;;;;;;4.53;1.90;;;22.60;99.90;;;;;;5038838;28;20051;-82
2022/08/23 18:45:09;;;;;;;10.43;2.40;;;22.40;99.90;;;;;;5036645;28;20387;-79
2022/08/23 18:47:59;;;;;;;8.90;2.20;;;22.20;99.90;;;;;;5029545;28;20095;-80
2022/08/23 18:50:47;;;;;;;5.30;2.00;;;22.00;99.90;;;;;;5045342;28;20244;-81
2022/08/23 18:53:39;;;;;;;5.32;2.25;;;21.80;99.90;;;;;;5041745;28;20060;-88
2022/08/23 18:56:29;;;;;;;6.13;2.10;;;21.60;99.90;;;;;;5036292;28;20045;-88
2022/08/23 18:59:16;;;;;;;10.13;2.35;;;21.60;99.90;;;;;;5043026;28;20044;-86
2022/08/23 19:02:04;;;;;;;6.30;2.75;;;21.40;99.90;;;;;;5053120;28;20444;-88
2022/08/23 19:04:56;;;;;;;8.23;2.22;;;21.30;99.90;;;;;;5036665;28;20482;-88
2022/08/23 19:07:43;;;;;;;7.25;2.42;;;21.20;99.90;;;;;;5033799;28;20068;-89
2022/08/23 19:10:33;;;;;;;7.90;2.38;;;21.20;99.90;;;;;;5042738;28;20041;-90
2022/08/23 19:13:21;;;;;;;4.25;2.35;;;21.20;99.90;;;;;;5056551;28;20055;-89
2022/08/23 19:16:14;;;;;;;4.90;2.00;;;21.20;99.90;;;;;;5065223;28;20059;-90
2022/08/23 19:19:04;;;;;;;7.00;2.72;;;21.20;99.90;;;;;;5056595;28;20060;-90
2022/08/23 19:21:55;;;;;;;3.78;2.45;;;21.20;99.90;;;;;;5035785;28;20127;-90
2022/08/23 19:24:46;;;;;;;4.82;2.78;;;21.10;99.90;;;;;;5028643;28;20033;-90
2022/08/23 19:27:38;;;;;;;8.23;3.37;;;21.00;99.90;;;;;;5062800;28;20451;-89
2022/08/23 19:30:26;;;;;;;5.20;2.95;;;20.80;99.90;;;;;;5054967;28;20486;-91
2022/08/23 19:33:16;;;;;;;5.60;2.70;;;20.70;99.90;;;;;;5038700;28;20371;-91
2022/08/23 19:36:06;;;;;;;7.13;2.97;;;20.60;99.90;;;;;;5049955;28;20468;-90
2022/08/23 19:39:09;;;;;;;9.25;2.92;;;20.50;99.90;;;;;;5057774;28;20072;-91
2022/08/23 19:41:57;;;;;;;4.80;2.60;;;20.40;99.90;;;;;;5055427;28;20138;-90